Flight Track Log - Related Links

Times and Time Zones

All times are in EDT time to prevent confusion due to time zone crossing. See the ASH2638 flight status page for this flight to view local times or setup timezone preferences in your user account.

Time Position Orientation Groundspeed Altitude Reporting Facility
EDT Latitude Longitude Course Direction KTS MPH feet Rate Location/Type
Mon 05:42:22 PM 33.4333 -112.0333 273° West 153 176 1,900  Level Phoenix TRACON
Mon 05:42:49 PM 33.4328 -112.0522 268° West 152 175 2,700 1,753 Climbing Albuquerque Center
Mon 05:43:51 PM 33.4375 -112.1228 275° West 206 237 4,500 2,274 Climbing Albuquerque Center
Mon 05:44:00 PM 33.4333 -112.3800 270° West  Level FlightAware
Mon 05:44:53 PM 33.4422 -112.2081 274° West 250 288 7,400  Level Albuquerque Center
Mon 05:45:00 PM 33.4384 -112.5065 273° West  Level FlightAware
Mon 05:45:55 PM 33.4447 -112.2958 272° West 263 303 10,700  Level Albuquerque Center
Mon 05:46:00 PM 33.4435 -112.6330 273° West  Level FlightAware
Mon 05:46:56 PM 33.4461 -112.3842 271° West 265 305 13,700  Level Albuquerque Center
Mon 05:47:00 PM 33.4484 -112.7596 273° West  Level FlightAware
Mon 05:47:58 PM 33.4472 -112.4683 271° West 255 293 16,000  Level Albuquerque Center
Mon 05:49:00 PM 33.4497 -112.5803 272° West 280 322 19,000 2,293 Climbing Albuquerque Center
Mon 05:50:01 PM 33.4506 -112.6656 271° West 286 329 20,700 1,756 Climbing Albuquerque Center
Mon 05:51:03 PM 33.4528 -112.7644 272° West 295 339 22,600 1,790 Climbing Albuquerque Center
Mon 05:52:05 PM 33.4661 -112.8850 278° West 305 351 24,400 1,659 Climbing Albuquerque Center
Mon 05:53:06 PM 33.4861 -112.9889 283° West 319 367 26,000 1,463 Climbing Albuquerque Center
Mon 05:54:08 PM 33.5058 -113.0953 283° West 325 374 27,400 1,258 Climbing Albuquerque Center
Mon 05:55:10 PM 33.5278 -113.2039 284° West 333 383 28,600 1,171 Climbing Albuquerque Center
Mon 05:56:11 PM 33.5489 -113.3189 282° West 348 400 29,800 1,366 Climbing Albuquerque Center
Mon 05:57:13 PM 33.5694 -113.4319 282° West 350 403 31,400 1,065 Climbing Albuquerque Center
Mon 05:58:15 PM 33.5939 -113.5667 282° West 347 399 32,000 293 Climbing Albuquerque Center
Mon 05:59:16 PM 33.6144 -113.6808 282° West 361 415 32,000  Level Albuquerque Center
Mon 06:00:18 PM 33.6386 -113.7992 284° West 365 420 32,000  Level Albuquerque Center
Mon 06:01:20 PM 33.6581 -113.9169 281° West 362 417 32,000  Level Albuquerque Center
Mon 06:02:21 PM 33.6808 -114.0367 283° West 366 421 32,000  Level Albuquerque Center
Mon 06:03:23 PM 33.7044 -114.1553 283° West 366 421 32,000  Level Albuquerque Center
Mon 06:04:25 PM 33.7258 -114.2794 282° West 366 421 32,000  Level Albuquerque Center
Mon 06:05:26 PM 33.7503 -114.4214 282° West 364 419 32,000  Level Albuquerque Center
Mon 06:06:28 PM 33.7706 -114.5397 282° West 363 418 32,000  Level Albuquerque Center
Mon 06:07:30 PM 33.7808 -114.6592 276° West 365 420 32,000  Level Los Center
Mon 06:08:32 PM 33.7864 -114.7783 273° West 361 415 32,000  Level Los Center
Mon 06:09:34 PM 33.7953 -114.8883 276° West 341 392 32,000  Level Los Center
Mon 06:10:48 PM 33.8000 -115.0081 273° West 318 366 32,000  Level Los Center
Mon 06:11:50 PM 33.8056 -115.1283 273° West 308 354 32,000  Level Los Center
Mon 06:12:52 PM 33.8119 -115.2297 274° West 305 351 32,000  Level Los Center
Mon 06:13:54 PM 33.8169 -115.3294 273° West 301 346 32,000  Level Los Center
Mon 06:14:56 PM 33.8228 -115.4286 274° West 298 343 32,000  Level Los Center
Mon 06:15:58 PM 33.8278 -115.5294 273° West 301 346 32,000  Level Los Center
Mon 06:16:59 PM 33.8342 -115.6506 274° West 301 346 32,000  Level Los Center
Mon 06:18:01 PM 33.8383 -115.7569 273° West 315 362 32,000 -48 Level Los Center
Mon 06:19:03 PM 33.8444 -115.8669 274° West 330 380 31,900 -823 Descending Los Center
Mon 06:20:05 PM 33.8503 -115.9800 274° West 339 390 30,300 -1,645 Descending Los Center
Mon 06:21:07 PM 33.8542 -116.0900 272° West 332 382 28,500 -1,839 Descending Los Center
Mon 06:22:09 PM 33.8611 -116.1978 274° West 326 375 26,500 -2,244 Descending Los Center
Mon 06:23:10 PM 33.8647 -116.3186 272° West 303 349 23,900 -2,244 Descending Los Center
Mon 06:24:12 PM 33.8694 -116.4172 273° West 297 342 21,900 -1,935 Descending Los Center
Mon 06:25:14 PM 33.8736 -116.5119 273° West 286 329 19,900 -1,742 Descending Los Center
Mon 06:26:16 PM 33.8775 -116.6011 273° West 271 312 18,300 -1,694 Descending Los Center
Mon 06:27:18 PM 33.8822 -116.6886 274° West 265 305 16,400 -1,645 Descending Los Center
Mon 06:28:20 PM 33.8864 -116.7794 273° West 271 312 14,900 -1,707 Descending Los Center
Mon 06:29:21 PM 33.8978 -116.8739 278° West 284 327 12,900 -2,265 Descending Los Center
Mon 06:29:58 PM 33.9167 -116.9500 287° West 282 325 11,200 -2,041 Descending Southern TRACON
Mon 06:30:58 PM 33.9500 -117.0333 296° West 271 312 9,600 -1,421 Descending Southern TRACON
Mon 06:31:52 PM 33.9667 -117.1000 287° West 251 289 8,500 -1,350 Descending Southern TRACON
Mon 06:32:58 PM 34.0000 -117.1833 296° West 254 292 6,900 -1,476 Descending Southern TRACON
Mon 06:33:58 PM 34.0167 -117.2667 284° West 265 305 5,400 -1,300 Descending Southern TRACON
Mon 06:34:58 PM 34.0500 -117.3500 296° West 261 300 4,300 -900 Descending Southern TRACON
Mon 06:35:58 PM 34.0500 -117.4167 270° West 219 252 3,600 -900 Descending Southern TRACON
Mon 06:36:58 PM 34.0500 -117.4833 270° West 182 209 2,500 -1,000 Descending Southern TRACON
Mon 06:38:04 PM 34.0500 -117.5500 270° West 155 178 1,500 -909 Descending Southern TRACON

Login

Don't have an account? Register now (free) for customized features, flight alerts, and more!